createdAt,value
2023-12-22T00:00:26.613Z,6.08
2023-12-22T00:05:29.778Z,6.23
2023-12-22T00:10:31.495Z,5.94
2023-12-22T00:15:33.120Z,5.45
2023-12-22T00:20:36.217Z,4.83
2023-12-22T00:25:37.884Z,4.61
2023-12-22T00:30:39.603Z,4.55
2023-12-22T00:35:42.624Z,4.52
2023-12-22T00:40:44.375Z,4.74
2023-12-22T00:45:46.080Z,4.70
2023-12-22T00:50:49.180Z,4.63
2023-12-22T00:55:50.991Z,4.68
2023-12-22T01:00:52.661Z,4.64
2023-12-22T01:05:55.999Z,4.71
2023-12-22T01:10:57.740Z,4.89
2023-12-22T01:15:59.423Z,4.89
2023-12-22T01:21:02.524Z,4.95
2023-12-22T01:26:04.245Z,5.02
2023-12-22T01:31:05.899Z,4.64
2023-12-22T01:36:09.052Z,5.07
2023-12-22T01:41:10.785Z,5.10
2023-12-22T01:46:13.588Z,5.10
2023-12-22T01:51:16.775Z,5.09
2023-12-22T01:56:18.448Z,5.13
2023-12-22T02:01:21.243Z,4.83
2023-12-22T02:06:24.910Z,5.25
2023-12-22T02:11:26.558Z,5.27
2023-12-22T02:16:37.943Z,4.25
2023-12-22T02:22:08.849Z,5.14
2023-12-22T02:27:29.440Z,5.14
2023-12-22T02:32:35.270Z,5.24
2023-12-22T02:37:39.644Z,5.27
2023-12-22T02:42:43.567Z,5.35
2023-12-22T02:47:45.644Z,5.30
2023-12-22T02:52:47.579Z,5.28
2023-12-22T02:57:51.164Z,5.34
2023-12-22T03:02:53.104Z,5.36
2023-12-22T03:07:55.056Z,5.43
2023-12-22T03:12:58.121Z,5.36
2023-12-22T03:17:59.818Z,5.18
2023-12-22T03:23:01.528Z,4.97
2023-12-22T03:28:05.194Z,5.06
2023-12-22T03:33:06.899Z,5.15
2023-12-22T03:38:08.690Z,5.18
2023-12-22T03:43:11.714Z,5.20
2023-12-22T03:48:14.329Z,5.20
2023-12-22T03:53:16.075Z,5.24
2023-12-22T03:58:19.637Z,5.26
2023-12-22T04:03:21.556Z,5.27
2023-12-22T04:08:23.428Z,5.19
2023-12-22T04:13:26.761Z,5.27
2023-12-22T04:18:28.441Z,5.28
2023-12-22T04:23:30.357Z,5.33
2023-12-22T04:28:33.418Z,5.40
2023-12-22T04:33:35.015Z,5.52
2023-12-22T04:38:36.484Z,5.62
2023-12-22T04:43:39.583Z,5.53
2023-12-22T04:48:41.434Z,5.79
2023-12-22T04:53:43.290Z,5.87
2023-12-22T04:58:46.526Z,5.92
2023-12-22T05:03:49.544Z,5.99
2023-12-22T05:08:51.391Z,5.96
2023-12-22T05:13:54.463Z,6.06
2023-12-22T05:18:56.049Z,6.12
2023-12-22T05:23:57.716Z,6.19
2023-12-22T05:29:01.073Z,5.75
2023-12-22T05:34:03.287Z,6.23
2023-12-22T05:39:04.951Z,6.24
2023-12-22T05:44:07.923Z,6.32
2023-12-22T05:49:09.758Z,6.39
2023-12-22T05:54:12.074Z,6.40
2023-12-22T05:59:15.164Z,6.61
2023-12-22T06:04:16.666Z,6.71
2023-12-22T06:09:18.414Z,6.75
2023-12-22T06:14:21.421Z,6.83
2023-12-22T06:19:23.308Z,6.89
2023-12-22T06:24:25.124Z,6.93
2023-12-22T06:29:30.130Z,7.05
2023-12-22T06:34:33.266Z,7.07
2023-12-22T06:39:34.957Z,7.03
2023-12-22T06:44:38.114Z,7.07
2023-12-22T06:49:39.925Z,7.13
2023-12-22T06:54:41.667Z,7.16
2023-12-22T06:59:46.028Z,7.21
2023-12-22T07:05:27.290Z,7.18
2023-12-22T07:10:30.023Z,7.06
2023-12-22T07:15:33.070Z,7.29
2023-12-22T07:20:35.142Z,7.30
2023-12-22T07:25:37.604Z,7.24
2023-12-22T07:30:40.643Z,7.15
2023-12-22T07:35:43.136Z,7.10
2023-12-22T07:40:46.203Z,7.08
2023-12-22T07:45:49.247Z,7.12
2023-12-22T07:50:51.867Z,6.91
2023-12-22T07:55:53.793Z,7.06
2023-12-22T08:00:56.950Z,6.99
2023-12-22T08:05:58.819Z,7.05
2023-12-22T08:11:01.113Z,7.02
2023-12-22T08:16:05.259Z,7.01
2023-12-22T08:21:14.621Z,7.02
2023-12-22T08:26:23.128Z,7.03
2023-12-22T08:31:26.254Z,6.43
2023-12-22T08:36:27.916Z,7.03
2023-12-22T08:41:29.633Z,7.07
2023-12-22T08:46:32.723Z,7.11
2023-12-22T08:51:34.739Z,7.13
2023-12-22T08:56:36.892Z,7.15
2023-12-22T09:01:39.968Z,7.23
2023-12-22T09:06:41.637Z,7.29
2023-12-22T09:11:43.326Z,6.95
2023-12-22T09:16:46.565Z,7.53
2023-12-22T09:21:48.209Z,7.58
2023-12-22T09:26:49.845Z,7.59
2023-12-22T09:31:53.011Z,7.71
2023-12-22T09:36:55.191Z,7.76
2023-12-22T09:41:57.076Z,7.81
2023-12-22T09:47:00.989Z,7.81
2023-12-22T09:52:03.217Z,7.93
2023-12-22T09:57:14.986Z,8.05
2023-12-22T10:02:28.480Z,7.88
2023-12-22T10:07:31.696Z,8.18
2023-12-22T10:12:35.190Z,8.18
2023-12-22T10:17:38.610Z,8.26
2023-12-22T10:22:40.333Z,8.30
2023-12-22T10:27:43.046Z,8.27
2023-12-22T10:32:46.089Z,8.31
2023-12-22T10:37:48.215Z,8.31
2023-12-22T10:42:50.458Z,8.39
2023-12-22T10:47:54.312Z,8.40
2023-12-22T10:52:56.312Z,8.40
2023-12-22T10:58:02.424Z,8.42
2023-12-22T11:03:09.017Z,8.33
2023-12-22T11:08:12.815Z,8.37
2023-12-22T11:13:17.171Z,8.33
2023-12-22T11:18:21.372Z,8.32
2023-12-22T11:23:24.770Z,8.37
2023-12-22T11:28:26.425Z,8.46
2023-12-22T11:33:30.585Z,8.44
2023-12-22T11:38:32.281Z,8.49
2023-12-22T11:43:36.134Z,8.50
2023-12-22T11:48:47.936Z,8.29
2023-12-22T11:53:49.718Z,8.53
2023-12-22T11:58:53.509Z,8.58
2023-12-22T12:03:58.202Z,8.52
2023-12-22T12:09:01.436Z,8.82
2023-12-22T12:14:10.291Z,8.92
2023-12-22T12:19:13.452Z,8.88
2023-12-22T12:24:15.187Z,9.00
2023-12-22T12:29:17.735Z,8.91
2023-12-22T12:34:21.451Z,9.02
2023-12-22T12:39:25.026Z,9.08
2023-12-22T12:44:27.923Z,9.16
2023-12-22T12:49:31.133Z,9.18
2023-12-22T12:54:33.264Z,9.27
2023-12-22T12:59:35.018Z,9.41
2023-12-22T13:04:41.025Z,9.41
2023-12-22T13:09:42.797Z,9.48
2023-12-22T13:14:44.705Z,9.39
2023-12-22T13:19:47.981Z,9.62
2023-12-22T13:24:56.304Z,9.69
2023-12-22T13:29:57.936Z,9.66
2023-12-22T13:35:01.102Z,9.64
2023-12-22T13:40:08.695Z,9.68
2023-12-22T13:45:11.997Z,9.73
2023-12-22T13:50:18.347Z,9.75
2023-12-22T13:55:21.249Z,8.76
2023-12-22T14:00:25.967Z,9.59
2023-12-22T14:05:31.837Z,9.65
2023-12-22T14:10:36.232Z,9.68
2023-12-22T14:15:44.666Z,9.66
2023-12-22T14:20:48.741Z,9.68
2023-12-22T14:25:50.490Z,9.53
2023-12-22T14:30:52.231Z,9.52
2023-12-22T14:35:55.465Z,9.55
2023-12-22T14:40:57.126Z,9.52
2023-12-22T14:45:59.019Z,9.46
2023-12-22T14:51:02.164Z,9.47
2023-12-22T14:56:04.340Z,9.42
2023-12-22T15:01:06.029Z,9.18
2023-12-22T15:06:10.508Z,9.42
2023-12-22T15:11:13.343Z,9.44
2023-12-22T15:16:15.137Z,9.46
2023-12-22T15:21:21.860Z,9.51
2023-12-22T15:26:24.127Z,9.04
2023-12-22T15:31:26.057Z,9.42
2023-12-22T15:36:29.039Z,9.47
2023-12-22T15:41:30.792Z,9.24
2023-12-22T15:46:32.831Z,9.42
2023-12-22T15:51:35.875Z,9.42
2023-12-22T15:56:37.773Z,9.42
2023-12-22T16:01:43.726Z,9.24
2023-12-22T16:06:47.179Z,9.41
2023-12-22T16:11:48.860Z,9.38
2023-12-22T16:16:50.723Z,9.38
2023-12-22T16:21:53.747Z,9.41
2023-12-22T16:26:55.381Z,9.45
2023-12-22T16:31:57.056Z,9.47
2023-12-22T16:37:00.059Z,9.46
2023-12-22T16:42:01.860Z,9.45
2023-12-22T16:47:03.945Z,9.33
2023-12-22T16:52:08.339Z,9.38
2023-12-22T16:57:10.016Z,9.29
2023-12-22T17:02:27.575Z,8.74
2023-12-22T17:07:37.935Z,9.20
2023-12-22T17:12:41.189Z,9.27
2023-12-22T17:17:43.188Z,9.30
2023-12-22T17:22:46.590Z,9.31
2023-12-22T17:27:48.610Z,9.31
2023-12-22T17:32:50.753Z,9.41
2023-12-22T17:37:54.070Z,9.32
2023-12-22T17:42:55.831Z,9.34
2023-12-22T17:47:57.663Z,9.39
2023-12-22T17:53:00.832Z,9.44
2023-12-22T17:58:02.525Z,9.44
2023-12-22T18:03:04.815Z,8.81
2023-12-22T18:08:08.168Z,9.41
2023-12-22T18:13:09.844Z,9.33
2023-12-22T18:18:11.634Z,9.40
2023-12-22T18:23:14.873Z,9.47
2023-12-22T18:28:16.546Z,9.41
2023-12-22T18:33:18.344Z,9.37
2023-12-22T18:38:21.459Z,9.46
2023-12-22T18:43:23.150Z,9.42
2023-12-22T18:48:24.877Z,9.49
2023-12-22T18:53:27.952Z,9.05
2023-12-22T18:58:29.748Z,9.46
2023-12-22T19:03:31.619Z,9.49
2023-12-22T19:08:34.850Z,9.49
2023-12-22T19:13:36.980Z,9.25
2023-12-22T19:18:39.112Z,9.07
2023-12-22T19:23:42.421Z,9.49
2023-12-22T19:28:44.348Z,9.48
2023-12-22T19:33:46.145Z,9.54
2023-12-22T19:38:49.221Z,9.56
2023-12-22T19:43:50.891Z,9.57
2023-12-22T19:48:52.781Z,9.09
2023-12-22T19:53:55.831Z,9.59
2023-12-22T19:58:57.570Z,9.66
2023-12-22T20:03:59.558Z,9.75
2023-12-22T20:09:02.981Z,9.74
2023-12-22T20:14:04.719Z,9.69
2023-12-22T20:19:06.636Z,9.54
2023-12-22T20:24:09.836Z,9.67
2023-12-22T20:29:11.643Z,9.74
2023-12-22T20:34:13.391Z,9.76
2023-12-22T20:39:16.417Z,9.75
2023-12-22T20:44:18.123Z,9.84
2023-12-22T20:49:19.955Z,9.34
2023-12-22T20:54:23.105Z,9.80
2023-12-22T20:59:24.808Z,9.86
2023-12-22T21:04:26.525Z,9.81
2023-12-22T21:09:29.722Z,9.64
2023-12-22T21:14:31.361Z,9.60
2023-12-22T21:19:33.243Z,9.42
2023-12-22T21:24:36.299Z,9.37
2023-12-22T21:29:41.171Z,9.07
2023-12-22T21:34:42.878Z,9.08
2023-12-22T21:39:45.864Z,9.07
2023-12-22T21:44:47.608Z,9.28
2023-12-22T21:49:49.399Z,9.30
2023-12-22T21:54:52.451Z,9.19
2023-12-22T21:59:54.108Z,9.09
2023-12-22T22:04:55.803Z,8.89
2023-12-22T22:09:59.073Z,8.50
2023-12-22T22:15:01.009Z,8.30
2023-12-22T22:20:03.669Z,8.02
2023-12-22T22:25:07.324Z,7.98
2023-12-22T22:30:09.528Z,7.67
2023-12-22T22:35:11.279Z,7.69
2023-12-22T22:40:14.709Z,7.60
2023-12-22T22:45:16.463Z,7.51
2023-12-22T22:50:18.462Z,7.53
2023-12-22T22:55:21.537Z,7.48
2023-12-22T23:00:23.183Z,7.46
2023-12-22T23:05:25.019Z,7.41
2023-12-22T23:10:28.040Z,7.38
2023-12-22T23:15:29.720Z,7.35
2023-12-22T23:20:31.534Z,7.39
2023-12-22T23:25:34.820Z,7.37
2023-12-22T23:30:36.621Z,7.29
2023-12-22T23:35:38.296Z,7.32
2023-12-22T23:40:41.303Z,7.20
2023-12-22T23:45:42.961Z,7.20
2023-12-22T23:50:44.792Z,7.23
2023-12-22T23:55:47.844Z,7.30
